Villers-le-Bouillet, Belgium
Current Conditions -  °F | °C
As of 10:50 AM on Sunday 21 Dec 2014 (Local Time) from EBLG Reporting Station
Broken Clouds Broken Clouds  
Wind Chill: 33°   Ceiling: 3300
Heat Index: 41°   Visibility: 6mi
Dew Point: 37°   Wind: 14mph
Humidity: 87%   Direction: 200°SSW
Pressure: 30.42"   Gusts: NA
Location:  50.58°N, 5.26°E
Report Text: EBLG 210950Z 20012KT 9999 FEW018 BKN033 05/03 Q1030 NOSIG
Loading
Personal Weather Stations






























Interactive Weather Map New forecast layout! Learn more

10-Day Weather Forecast

Advertisements
Track Severe Weather on mobile